Time;durP1;ratioP1;P1;durP2;ratioP2;P2;SDS_P1;SDS_P2;PMS_P1;PMS_P2;Temp;Humidity;BMP_temperature;BMP_pressure;BME280_temperature;BME280_humidity;BME280_pressure;Samples;Min_cycle;Max_cycle;Signal;HPM_P1;HPM_P2
2022/10/12 00:00:16;;;;;;;11.15;5.25;;;;;;;15.60;74.15;100726.03;5107194;28;20019;-30
2022/10/12 00:02:41;;;;;;;6.82;4.40;;;;;;;15.76;73.54;100750.59;5106889;28;20038;-29
2022/10/12 00:05:07;;;;;;;8.48;4.47;;;;;;;15.41;73.93;100713.78;5107171;28;20061;-28
2022/10/12 00:07:32;;;;;;;7.32;3.95;;;;;;;15.57;73.76;100725.69;5107375;28;20028;-29
2022/10/12 00:09:58;;;;;;;6.60;4.13;;;;;;;15.66;73.36;100733.16;5107637;28;20113;-27
2022/10/12 00:12:23;;;;;;;6.20;4.05;;;;;;;15.56;74.29;100738.31;5107200;28;20039;-28
2022/10/12 00:14:49;;;;;;;7.78;3.83;;;;;;;15.31;74.41;100713.56;5107091;28;20027;-28
2022/10/12 00:17:15;;;;;;;8.45;4.10;;;;;;;15.30;75.26;100723.47;5107178;28;20043;-27
2022/10/12 00:19:41;;;;;;;8.85;4.05;;;;;;;15.16;74.98;100706.78;5107430;28;20031;-29
2022/10/12 00:22:06;;;;;;;8.18;4.20;;;;;;;15.24;75.24;100724.41;5107428;28;20786;-28
2022/10/12 00:24:31;;;;;;;10.98;4.72;;;;;;;15.15;74.81;100710.50;5107346;28;20115;-28
2022/10/12 00:26:57;;;;;;;10.57;4.78;;;;;;;15.18;75.12;100723.50;5107104;28;20085;-31
2022/10/12 00:29:23;;;;;;;9.25;5.20;;;;;;;15.12;75.48;100721.75;5107306;28;20027;-27
2022/10/12 00:31:48;;;;;;;10.55;5.70;;;;;;;15.10;76.15;100723.84;5107141;28;20036;-28
2022/10/12 00:34:13;;;;;;;9.77;5.30;;;;;;;15.09;76.42;100711.44;5110047;28;20481;-27
2022/10/12 00:36:39;;;;;;;7.57;4.80;;;;;;;15.07;76.33;100716.22;5100362;28;20110;-27
2022/10/12 00:39:07;;;;;;;9.30;5.05;;;;;;;15.05;76.41;100700.34;5090639;28;20027;-28
2022/10/12 00:41:38;;;;;;;9.23;5.45;;;;;;;15.30;75.29;100722.66;5090730;28;20480;-29
2022/10/12 00:44:34;;;;;;;9.77;6.25;;;;;;;15.15;75.82;100721.25;5090544;28;20062;-27
2022/10/12 00:47:06;;;;;;;9.88;6.32;;;;;;;14.97;76.40;100707.94;5072059;28;20412;-32
2022/10/12 00:49:32;;;;;;;9.43;6.13;;;;;;;14.90;76.66;100717.97;5072439;28;20400;-28
2022/10/12 00:52:02;;;;;;;9.90;5.50;;;;;;;15.11;75.78;100720.09;5090544;28;20043;-30
2022/10/12 00:54:32;;;;;;;9.65;5.40;;;;;;;15.17;75.60;100729.09;5090889;28;20028;-28
2022/10/12 00:57:00;;;;;;;9.07;5.32;;;;;;;15.03;75.87;100721.25;5090267;28;20512;-29
2022/10/12 00:59:30;;;;;;;10.23;5.80;;;;;;;15.08;75.73;100720.56;5090506;28;20031;-28
2022/10/12 01:01:56;;;;;;;9.73;5.68;;;;;;;15.04;75.66;100724.78;5090424;28;20035;-27
2022/10/12 01:04:23;;;;;;;11.35;5.35;;;;;;;15.07;75.73;100729.66;5090087;28;20031;-29
2022/10/12 01:06:49;;;;;;;10.05;5.18;;;;;;;15.01;75.65;100719.84;5090480;28;20024;-26
2022/10/12 01:09:15;;;;;;;9.18;4.45;;;;;;;15.12;74.70;100711.00;5090282;28;20028;-27
2022/10/12 01:11:40;;;;;;;11.82;5.28;;;;;;;15.30;74.78;100722.66;5090207;28;20028;-27
2022/10/12 01:14:07;;;;;;;10.50;4.60;;;;;;;15.15;75.19;100705.13;5090351;28;20032;-28
2022/10/12 01:16:37;;;;;;;8.60;5.22;;;;;;;15.29;74.96;100716.47;5090037;28;20407;-28
2022/10/12 01:19:40;;;;;;;11.35;5.93;;;;;;;15.23;75.27;100718.22;5090144;28;20161;-30
2022/10/12 01:22:13;;;;;;;9.73;4.90;;;;;;;15.18;75.56;100719.97;5089924;28;20028;-28
2022/10/12 01:24:38;;;;;;;12.10;5.95;;;;;;;15.12;75.31;100700.25;5071013;28;20498;-29
2022/10/12 01:27:53;;;;;;;8.98;6.32;;;;;;;15.15;75.55;100721.25;5088392;28;20028;-27
2022/10/12 01:30:21;;;;;;;10.68;6.20;;;;;;;15.07;76.54;100726.97;5075962;28;20140;-27
2022/10/12 01:32:58;;;;;;;11.07;6.63;;;;;;;15.18;75.93;100731.56;5089400;28;20036;-27
2022/10/12 01:35:56;;;;;;;11.88;6.80;;;;;;;15.06;76.85;100730.72;5089996;28;20499;-30
2022/10/12 01:38:21;;;;;;;10.05;5.97;;;;;;;15.09;76.24;100719.50;5034633;28;20048;-28
2022/10/12 01:40:58;;;;;;;10.32;5.80;;;;;;;15.02;76.93;100721.50;5069334;28;20028;-27
2022/10/12 01:43:39;;;;;;;12.45;6.00;;;;;;;14.85;77.96;100714.13;5069102;28;20522;-28
2022/10/12 01:46:19;;;;;;;10.77;6.03;;;;;;;15.06;76.84;100728.03;5068258;28;20024;-29
2022/10/12 01:48:49;;;;;;;11.70;6.32;;;;;;;14.95;77.65;100721.59;5084438;28;20029;-30
2022/10/12 01:51:21;;;;;;;10.10;6.63;;;;;;;14.65;79.29;100727.03;5067697;28;20031;-29
2022/10/12 01:53:56;;;;;;;10.52;6.63;;;;;;;14.76;78.30;100710.13;5069076;28;20036;-28
2022/10/12 01:56:35;;;;;;;10.52;6.35;;;;;;;15.12;77.37;100732.47;5084681;28;20040;-27
2022/10/12 01:59:07;;;;;;;9.30;5.55;;;;;;;15.16;76.78;100727.44;5084635;28;20025;-27
2022/10/12 02:01:49;;;;;;;12.50;6.20;;;;;;;15.08;76.06;100712.50;5084351;28;20404;-29
2022/10/12 02:04:14;;;;;;;9.57;4.80;;;;;;;15.13;76.31;100733.28;5068721;28;20082;-30
2022/10/12 02:07:03;;;;;;;9.82;5.38;;;;;;;15.05;76.54;100740.63;5084109;28;20024;-30
2022/10/12 02:09:33;;;;;;;9.07;4.78;;;;;;;14.88;76.13;100723.56;5068963;28;20034;-27
2022/10/12 02:12:12;;;;;;;8.85;5.13;;;;;;;14.90;76.11;100737.59;5068867;28;20534;-27
2022/10/12 02:14:42;;;;;;;9.48;4.40;;;;;;;14.60;76.49;100719.66;5068253;28;20033;-28
2022/10/12 02:17:11;;;;;;;8.80;4.78;;;;;;;14.61;76.91;100720.50;5068970;28;20606;-29
2022/10/12 02:19:40;;;;;;;11.30;5.88;;;;;;;14.65;77.79;100733.22;5068488;28;20054;-31
2022/10/12 02:22:07;;;;;;;8.50;5.30;;;;;;;14.72;77.52;100727.75;5067210;28;20374;-28
2022/10/12 02:24:35;;;;;;;10.57;5.70;;;;;;;14.81;77.43;100726.38;5068473;28;20123;-28
2022/10/12 02:27:02;;;;;;;8.85;5.70;;;;;;;14.96;76.80;100735.84;5068316;28;20486;-28
2022/10/12 02:29:35;;;;;;;10.23;5.22;;;;;;;14.98;76.53;100723.81;5068608;28;20130;-29
2022/10/12 02:32:27;;;;;;;8.23;4.82;;;;;;;14.85;77.79;100740.97;5068616;28;20047;-31
2022/10/12 02:35:05;;;;;;;8.93;5.20;;;;;;;14.76;79.02;100747.72;5068070;28;20097;-28
2022/10/12 02:37:35;;;;;;;;;;;;;;;14.76;79.83;100744.22;5066928;28;20139;-28
2022/10/12 02:40:23;;;;;;;8.25;4.85;;;;;;;14.65;80.48;100748.50;5068102;28;19939;-28
2022/10/12 02:43:01;;;;;;;;;;;;;;;14.59;80.19;100744.06;5067127;28;20032;-32
2022/10/12 02:45:29;;;;;;;9.85;6.03;;;;;;;14.44;80.63;100736.38;5068118;28;20015;-28
2022/10/12 02:47:57;;;;;;;10.05;5.55;;;;;;;14.90;79.00;100750.22;5068581;28;20035;-29
2022/10/12 02:50:24;;;;;;;8.23;5.10;;;;;;;14.89;78.15;100733.25;5083458;28;20024;-29
2022/10/12 02:52:51;;;;;;;8.57;4.93;;;;;;;14.93;78.43;100747.03;5067604;28;20411;-30
2022/10/12 02:55:17;;;;;;;11.95;5.43;;;;;;;14.99;78.00;100755.00;5067973;28;20032;-27
2022/10/12 02:57:42;;;;;;;8.90;5.70;;;;;;;14.98;77.66;100753.38;5067534;28;20036;-28
2022/10/12 03:00:09;;;;;;;8.32;5.03;;;;;;;14.77;78.25;100735.09;5067682;28;20066;-29
2022/10/12 03:02:34;;;;;;;9.45;4.70;;;;;;;14.71;80.20;100736.03;5065727;28;20123;-28
2022/10/12 03:05:00;;;;;;;8.38;4.75;;;;;;;14.77;79.37;100735.09;5067704;28;20025;-30
2022/10/12 03:07:25;;;;;;;9.18;4.65;;;;;;;14.96;78.71;100751.97;5067939;28;20093;-29
2022/10/12 03:09:50;;;;;;;8.68;5.50;;;;;;;14.91;79.22;100754.50;5067819;28;20032;-28
2022/10/12 03:12:16;;;;;;;7.78;4.32;;;;;;;14.72;78.70;100738.47;5067933;28;20036;-28
2022/10/12 03:14:42;;;;;;;7.40;4.55;;;;;;;14.68;79.24;100740.00;5067490;28;20028;-28
2022/10/12 03:17:07;;;;;;;8.05;4.95;;;;;;;14.50;80.12;100740.00;5067634;28;20033;-28
2022/10/12 03:19:33;;;;;;;8.25;4.88;;;;;;;14.44;80.68;100757.84;5067516;28;20035;-29
2022/10/12 03:21:58;;;;;;;8.77;4.57;;;;;;;14.46;80.64;100761.13;5067500;28;20466;-29
2022/10/12 03:24:24;;;;;;;7.68;4.20;;;;;;;14.57;79.89;100764.94;5065991;28;20027;-29
2022/10/12 03:26:49;;;;;;;7.95;4.43;;;;;;;14.45;79.96;100746.06;5067068;28;20106;-27
2022/10/12 03:29:15;;;;;;;8.10;4.50;;;;;;;14.49;79.68;100773.28;5065901;28;20131;-27
2022/10/12 03:31:40;;;;;;;6.97;4.50;;;;;;;14.34;80.91;100769.09;5066885;28;20043;-28
2022/10/12 03:34:06;;;;;;;7.50;4.80;;;;;;;14.29;81.97;100760.94;5067102;28;20045;-28
2022/10/12 03:36:31;;;;;;;7.80;4.55;;;;;;;14.43;81.39;100766.97;5067848;28;20532;-29
2022/10/12 03:38:57;;;;;;;8.07;4.57;;;;;;;14.39;81.23;100761.22;5086953;28;20119;-27
2022/10/12 03:41:22;;;;;;;9.55;4.38;;;;;;;14.47;79.85;100755.53;5087422;28;20074;-29
2022/10/12 03:43:48;;;;;;;9.77;4.70;;;;;;;14.54;80.27;100766.16;5087042;28;20020;-27
2022/10/12 03:46:13;;;;;;;7.65;4.85;;;;;;;14.63;79.75;100761.34;5087089;28;20027;-28
2022/10/12 03:48:39;;;;;;;7.80;4.43;;;;;;;14.67;79.81;100762.53;5068645;28;20032;-28
2022/10/12 03:51:05;;;;;;;9.70;4.97;;;;;;;14.64;79.91;100757.59;5069008;28;20032;-29
2022/10/12 03:53:30;;;;;;;7.97;4.88;;;;;;;14.75;78.94;100764.88;5087328;28;20032;-27
2022/10/12 03:55:56;;;;;;;7.68;4.80;;;;;;;14.69;79.11;100763.13;5086965;28;20031;-31
2022/10/12 03:58:21;;;;;;;7.93;4.28;;;;;;;14.62;79.19;100765.06;5087204;28;20125;-28
2022/10/12 04:00:52;;;;;;;8.73;5.20;;;;;;;14.57;79.57;100746.16;5089313;28;20062;-30
2022/10/12 04:03:17;;;;;;;9.85;5.35;;;;;;;14.43;80.37;100746.28;5087095;28;20032;-28
2022/10/12 04:05:43;;;;;;;10.65;5.80;;;;;;;14.47;80.10;100750.16;5092019;28;20404;-28
2022/10/12 04:08:08;;;;;;;9.95;5.43;;;;;;;14.75;79.10;100758.69;5106793;28;20080;-29
2022/10/12 04:10:33;;;;;;;9.35;5.40;;;;;;;14.94;78.47;100764.81;5102883;28;20097;-32
2022/10/12 04:12:59;;;;;;;8.77;5.05;;;;;;;14.85;78.13;100765.16;5087032;28;20071;-27
2022/10/12 04:15:24;;;;;;;10.68;5.65;;;;;;;14.62;78.77;100741.72;5089626;28;20028;-28
2022/10/12 04:17:50;;;;;;;12.15;5.13;;;;;;;14.77;78.81;100764.63;5097911;28;20054;-28
2022/10/12 04:20:15;;;;;;;8.55;4.90;;;;;;;14.42;80.71;100752.69;5105377;28;20019;-32
2022/10/12 04:22:41;;;;;;;8.95;5.70;;;;;;;14.36;81.72;100756.28;5106982;28;20563;-28
2022/10/12 04:25:07;;;;;;;11.60;6.22;;;;;;;14.30;82.84;100756.38;5107012;28;20035;-27
2022/10/12 04:27:32;;;;;;;9.65;5.57;;;;;;;14.75;80.76;100753.31;5106953;28;20024;-29
2022/10/12 04:29:57;;;;;;;11.30;5.03;;;;;;;14.53;80.65;100734.22;5106990;28;20028;-28
2022/10/12 04:32:23;;;;;;;10.23;4.80;;;;;;;14.78;79.90;100752.88;5107056;28;20031;-29
2022/10/12 04:34:48;;;;;;;12.07;4.93;;;;;;;14.52;81.02;100760.22;5106601;28;20031;-28
2022/10/12 04:37:14;;;;;;;11.23;5.72;;;;;;;14.34;82.71;100752.19;5106877;28;20139;-29
2022/10/12 04:39:39;;;;;;;9.55;5.32;;;;;;;14.43;83.03;100767.75;5106971;28;20028;-29
2022/10/12 04:42:06;;;;;;;10.48;5.60;;;;;;;14.59;82.41;100762.84;5088468;28;20560;-27
2022/10/12 04:44:32;;;;;;;9.63;5.15;;;;;;;14.61;82.01;100769.63;5105267;28;20019;-32
2022/10/12 04:46:57;;;;;;;9.07;5.63;;;;;;;14.43;83.07;100765.09;5088614;28;20084;-30
2022/10/12 04:49:23;;;;;;;11.95;5.65;;;;;;;14.58;82.67;100777.31;5106767;28;20027;-28
2022/10/12 04:51:48;;;;;;;12.90;6.38;;;;;;;14.54;82.15;100759.97;5106859;28;20032;-32
2022/10/12 04:54:13;;;;;;;10.73;5.15;;;;;;;14.79;81.28;100781.34;5106861;28;20032;-29
2022/10/12 04:56:39;;;;;;;11.27;5.05;;;;;;;14.84;81.28;100784.97;5106436;28;20030;-29
2022/10/12 04:59:04;;;;;;;11.02;5.22;;;;;;;14.66;81.73;100782.34;5106681;28;20101;-28
2022/10/12 05:01:30;;;;;;;11.63;5.18;;;;;;;14.27;83.69;100757.66;5106942;28;20479;-27
2022/10/12 05:03:55;;;;;;;10.73;5.10;;;;;;;14.24;85.25;100790.28;5106821;28;20027;-29
2022/10/12 05:06:20;;;;;;;12.68;5.30;;;;;;;14.49;83.92;100786.72;5106576;28;20056;-28
2022/10/12 05:08:46;;;;;;;25.60;7.72;;;;;;;14.73;82.89;100793.00;5088142;28;20031;-30
2022/10/12 05:11:11;;;;;;;10.82;5.25;;;;;;;14.83;82.49;100786.03;5106622;28;20024;-28
2022/10/12 05:13:37;;;;;;;11.57;5.57;;;;;;;14.76;82.16;100793.34;5106484;28;20777;-29
2022/10/12 05:16:02;;;;;;;12.80;6.10;;;;;;;14.98;81.15;100788.28;5106770;28;20031;-30
2022/10/12 05:18:28;;;;;;;16.55;6.22;;;;;;;15.07;80.93;100794.13;5106797;28;20034;-28
2022/10/12 05:20:53;;;;;;;15.13;7.35;;;;;;;14.86;81.72;100793.63;5110049;28;20028;-27
2022/10/12 05:23:19;;;;;;;20.08;9.00;;;;;;;15.04;80.85;100798.09;5109969;28;20023;-28
2022/10/12 05:25:44;;;;;;;16.17;6.72;;;;;;;14.97;81.49;100804.63;5110322;28;20054;-31
2022/10/12 05:28:09;;;;;;;11.60;6.57;;;;;;;14.94;81.91;100805.09;5109923;28;20479;-29
2022/10/12 05:30:35;;;;;;;11.35;6.03;;;;;;;14.76;83.46;100809.47;5109701;28;20080;-29
2022/10/12 05:33:00;;;;;;;11.30;5.60;;;;;;;14.51;83.97;100790.78;5110133;28;20023;-28
2022/10/12 05:35:26;;;;;;;9.70;5.82;;;;;;;14.60;84.37;100816.28;5109952;28;20027;-29
2022/10/12 05:37:52;;;;;;;12.07;6.20;;;;;;;14.59;84.22;100803.94;5091132;28;20516;-28
2022/10/12 05:40:17;;;;;;;10.45;6.40;;;;;;;14.56;84.29;100814.28;5109735;28;20124;-29
2022/10/12 05:42:44;;;;;;;13.02;5.95;;;;;;;14.51;84.84;100820.31;5091077;28;20732;-28
2022/10/12 05:45:10;;;;;;;13.52;6.40;;;;;;;14.90;83.21;100820.03;5091584;28;20043;-30
2022/10/12 05:47:36;;;;;;;11.10;6.32;;;;;;;15.10;81.88;100807.13;5089149;28;20075;-30
2022/10/12 05:50:02;;;;;;;12.15;6.15;;;;;;;14.93;83.20;100830.31;5089184;28;20464;-30
2022/10/12 05:52:28;;;;;;;13.90;5.75;;;;;;;14.91;83.44;100827.03;5089381;28;20090;-29
2022/10/12 05:54:53;;;;;;;14.05;7.80;;;;;;;14.86;84.09;100828.53;5088976;28;20039;-27
2022/10/12 05:57:19;;;;;;;12.32;8.00;;;;;;;14.80;84.18;100828.63;5089060;28;20028;-31
2022/10/12 05:59:44;;;;;;;12.90;6.43;;;;;;;14.63;84.23;100817.72;5089113;28;20127;-28
2022/10/12 06:02:15;;;;;;;14.10;6.30;;;;;;;14.63;84.71;100821.22;5070999;28;20518;-28
2022/10/12 06:04:40;;;;;;;12.93;7.35;;;;;;;14.76;84.52;100833.63;5088996;28;20024;-31
2022/10/12 06:07:06;;;;;;;14.85;6.47;;;;;;;14.88;84.33;100843.59;5088928;28;20436;-29
2022/10/12 06:09:31;;;;;;;12.00;7.05;;;;;;;15.06;82.99;100844.34;5089109;28;20051;-29
2022/10/12 06:11:56;;;;;;;12.90;6.82;;;;;;;15.35;79.52;100843.72;5070527;28;20071;-28
2022/10/12 06:14:22;;;;;;;10.80;6.53;;;;;;;15.38;77.51;100836.00;5089236;28;20537;-29
2022/10/12 06:16:48;;;;;;;13.88;6.78;;;;;;;15.57;77.26;100862.78;5088901;28;20059;-28
2022/10/12 06:19:13;;;;;;;12.02;6.45;;;;;;;15.54;77.79;100866.75;5088691;28;20111;-29
2022/10/12 06:21:38;;;;;;;10.88;6.57;;;;;;;15.64;77.40;100863.50;5088858;28;20032;-28
2022/10/12 06:24:04;;;;;;;10.18;6.53;;;;;;;15.67;75.67;100863.88;5088562;28;20031;-28
2022/10/12 06:26:30;;;;;;;9.23;5.05;;;;;;;15.57;74.73;100852.03;5070254;28;20089;-28
2022/10/12 06:28:55;;;;;;;9.98;4.85;;;;;;;15.75;74.33;100869.97;5069804;28;20790;-29
2022/10/12 06:31:21;;;;;;;11.13;5.18;;;;;;;15.64;74.74;100860.81;5087872;28;20088;-28
2022/10/12 06:33:49;;;;;;;13.10;6.20;;;;;;;15.70;74.57;100883.28;5088299;28;20035;-27
2022/10/12 06:36:15;;;;;;;9.90;5.47;;;;;;;15.73;74.66;100866.69;5088542;28;20036;-27
2022/10/12 06:38:40;;;;;;;10.57;6.65;;;;;;;15.87;74.79;100876.16;5088024;28;20101;-28
2022/10/12 06:41:05;;;;;;;14.70;10.50;;;;;;;15.78;73.27;100869.50;5069959;28;20106;-29
2022/10/12 06:43:31;;;;;;;12.88;7.03;;;;;;;15.79;74.94;100881.88;5069747;28;20031;-35
2022/10/12 06:46:00;;;;;;;12.57;8.18;;;;;;;15.84;74.74;100876.66;5088213;28;20126;-28
2022/10/12 06:48:25;;;;;;;12.40;6.82;;;;;;;15.70;74.38;100878.72;5088116;28;20024;-32
2022/10/12 06:50:50;;;;;;;11.88;7.25;;;;;;;15.59;74.57;100874.97;5088142;28;20042;-29
2022/10/12 06:53:16;;;;;;;14.27;7.97;;;;;;;15.76;74.15;100890.44;5086771;28;20032;-29
2022/10/12 06:55:41;;;;;;;12.93;7.38;;;;;;;15.74;74.72;100862.97;5087879;28;20549;-31
2022/10/12 06:58:07;;;;;;;11.65;7.30;;;;;;;15.78;74.27;100882.97;5088184;28;20032;-28
2022/10/12 07:00:33;;;;;;;8.80;5.88;;;;;;;15.73;75.17;100866.69;5088254;28;20495;-28
2022/10/12 07:02:58;;;;;;;11.07;6.53;;;;;;;15.89;74.74;100878.63;5087618;28;20024;-29
2022/10/12 07:05:24;;;;;;;12.13;6.95;;;;;;;16.12;74.45;100891.25;5087912;28;20088;-28
2022/10/12 07:07:49;;;;;;;12.52;7.28;;;;;;;16.08;73.87;100872.06;5087748;28;20578;-31
2022/10/12 07:10:14;;;;;;;10.50;7.13;;;;;;;16.08;73.87;100869.38;5087668;28;20040;-28
2022/10/12 07:12:40;;;;;;;14.65;8.48;;;;;;;16.14;73.01;100889.13;5068797;28;20511;-28
2022/10/12 07:15:06;;;;;;;14.40;7.95;;;;;;;15.79;74.20;100874.66;5087819;28;20127;-27
2022/10/12 07:17:32;;;;;;;12.88;8.20;;;;;;;16.05;73.77;100877.91;5087272;28;20112;-28
2022/10/12 07:19:58;;;;;;;13.75;8.23;;;;;;;16.17;73.03;100867.16;5087649;28;20089;-27
2022/10/12 07:22:23;;;;;;;12.50;7.45;;;;;;;16.27;72.93;100886.19;5087565;28;20475;-31
2022/10/12 07:24:48;;;;;;;14.13;8.20;;;;;;;16.19;72.83;100875.81;5087022;28;20055;-28
2022/10/12 07:27:14;;;;;;;11.60;7.47;;;;;;;16.19;72.71;100886.56;5087143;28;20028;-27
2022/10/12 07:29:40;;;;;;;9.85;6.40;;;;;;;16.32;71.96;100901.63;5087203;28;20206;-29
2022/10/12 07:32:07;;;;;;;10.18;6.22;;;;;;;16.47;70.39;100908.16;5087724;28;20097;-28
2022/10/12 07:34:33;;;;;;;10.32;6.65;;;;;;;16.49;70.56;100905.25;5087208;28;20115;-28
2022/10/12 07:36:59;;;;;;;10.20;6.00;;;;;;;16.56;70.09;100908.59;5068723;28;20130;-29
2022/10/12 07:39:24;;;;;;;11.20;6.38;;;;;;;16.54;69.88;100899.94;5087095;28;20139;-30
2022/10/12 07:41:51;;;;;;;11.98;6.30;;;;;;;16.48;70.60;100885.56;5086845;28;20082;-28
2022/10/12 07:44:18;;;;;;;9.98;6.05;;;;;;;16.77;69.63;100907.13;5086657;28;20040;-28
2022/10/12 07:46:44;;;;;;;8.37;5.20;;;;;;;16.76;68.24;100892.03;5086974;28;20882;-27
2022/10/12 07:49:14;;;;;;;8.10;5.10;;;;;;;16.88;69.80;100910.91;5087368;28;20024;-27
2022/10/12 07:51:40;;;;;;;11.25;5.00;;;;;;;16.97;68.68;100889.78;5086985;28;20488;-29
2022/10/12 07:54:05;;;;;;;8.82;4.70;;;;;;;17.08;66.78;100888.91;5086891;28;20069;-31
2022/10/12 07:56:31;;;;;;;7.93;4.50;;;;;;;17.25;67.44;100889.75;5068871;28;20051;-28
2022/10/12 07:58:57;;;;;;;8.73;4.85;;;;;;;17.23;66.87;100897.25;5086956;28;20118;-28
2022/10/12 08:01:25;;;;;;;7.97;3.88;;;;;;;17.41;65.29;100906.19;5086884;28;20073;-28
2022/10/12 08:03:51;;;;;;;7.95;3.90;;;;;;;17.51;65.54;100898.28;5087069;28;20028;-31
2022/10/12 08:06:20;;;;;;;7.50;3.88;;;;;;;17.51;65.27;100902.84;5087137;28;20059;-29
2022/10/12 08:08:46;;;;;;;6.82;3.35;;;;;;;17.36;64.24;100882.63;5086458;28;20489;-29
2022/10/12 08:11:12;;;;;;;7.47;3.58;;;;;;;17.43;63.90;100902.19;5087096;28;20495;-27
2022/10/12 08:13:39;;;;;;;7.65;2.78;;;;;;;17.62;63.66;100900.06;5086628;28;20119;-29
2022/10/12 08:16:08;;;;;;;6.68;2.88;;;;;;;17.80;63.49;100900.88;5086887;28;20031;-30
2022/10/12 08:18:34;;;;;;;6.47;2.95;;;;;;;17.75;63.14;100900.78;5086502;28;20191;-31
2022/10/12 08:20:59;;;;;;;6.65;2.90;;;;;;;17.82;63.31;100896.06;5086721;28;20619;-30
2022/10/12 08:23:24;;;;;;;8.18;3.03;;;;;;;18.07;64.47;100904.56;5086510;28;20028;-27
2022/10/12 08:25:55;;;;;;;7.85;3.05;;;;;;;18.12;62.48;100894.88;5086861;28;20121;-28
2022/10/12 08:28:21;;;;;;;6.45;2.70;;;;;;;18.11;62.34;100863.56;5086984;28;20032;-29
2022/10/12 08:30:46;;;;;;;9.10;3.05;;;;;;;18.48;62.05;100905.09;5068314;28;20035;-30
2022/10/12 08:33:13;;;;;;;5.70;2.55;;;;;;;18.28;62.09;100892.13;5086534;28;20036;-30
2022/10/12 08:35:39;;;;;;;9.88;3.35;;;;;;;18.64;60.66;100905.28;5086531;28;20786;-29
2022/10/12 08:38:05;;;;;;;5.32;2.53;;;;;;;18.63;60.78;100892.84;5084465;28;20063;-28
2022/10/12 08:40:34;;;;;;;7.80;2.95;;;;;;;18.83;59.76;100901.22;5086372;28;20035;-29
2022/10/12 08:43:18;;;;;;;8.95;3.53;;;;;;;18.56;60.99;100909.25;5086548;28;20035;-28
2022/10/12 08:45:53;;;;;;;7.10;3.03;;;;;;;18.72;61.78;100904.03;5086593;28;20047;-29
2022/10/12 08:48:51;;;;;;;10.02;3.42;;;;;;;18.82;60.54;100885.28;5086148;28;20705;-30
2022/10/12 08:51:22;;;;;;;8.23;2.70;;;;;;;19.03;60.51;100910.63;5072673;28;20040;-28
2022/10/12 08:53:56;;;;;;;5.47;3.08;;;;;;;18.86;60.09;100903.41;5086621;28;20032;-28
2022/10/12 08:56:22;;;;;;;8.60;3.00;;;;;;;18.93;60.34;100897.00;5090282;28;20562;-29
2022/10/12 08:58:49;;;;;;;5.45;2.78;;;;;;;18.84;59.96;100891.25;5089990;28;20107;-28
2022/10/12 09:01:27;;;;;;;5.20;2.60;;;;;;;19.38;57.89;100893.09;5090173;28;20028;-29
2022/10/12 09:03:59;;;;;;;6.40;2.95;;;;;;;19.73;58.40;100894.50;5089864;28;20278;-28
2022/10/12 09:06:33;;;;;;;9.63;2.58;;;;;;;19.54;57.89;100878.63;5090080;28;20032;-30
2022/10/12 09:09:11;;;;;;;7.75;3.13;;;;;;;19.95;56.52;100903.31;5071677;28;20035;-29
2022/10/12 09:11:42;;;;;;;6.38;3.15;;;;;;;19.84;56.59;100894.31;5088697;28;20043;-29
2022/10/12 09:14:16;;;;;;;7.50;3.00;;;;;;;19.55;57.67;100893.78;5089699;28;20028;-28
2022/10/12 09:16:44;;;;;;;8.30;3.13;;;;;;;19.48;57.54;100894.00;5089686;28;20150;-28
2022/10/12 09:19:19;;;;;;;7.07;3.85;;;;;;;19.97;56.15;100906.56;5089680;28;20032;-29
2022/10/12 09:21:47;;;;;;;5.35;2.20;;;;;;;20.12;55.12;100907.75;5089426;28;20540;-28
2022/10/12 09:24:25;;;;;;;6.00;2.88;;;;;;;19.67;55.37;100886.28;5088263;28;20526;-28
2022/10/12 09:26:52;;;;;;;;;;;;;;;19.91;56.13;100907.63;5089961;28;20036;-29
2022/10/12 09:29:28;;;;;;;7.85;2.63;;;;;;;19.65;56.12;100910.09;5089652;28;19957;-27
2022/10/12 09:32:16;;;;;;;6.30;2.28;;;;;;;19.73;54.63;100910.72;5071079;28;20123;-30
2022/10/12 09:34:42;;;;;;;7.03;2.45;;;;;;;20.09;53.44;100897.44;5089387;28;20039;-28
2022/10/12 09:37:16;;;;;;;6.05;2.20;;;;;;;20.39;53.05;100907.59;5089300;28;20105;-31
2022/10/12 09:39:42;;;;;;;9.43;2.45;;;;;;;20.55;53.20;100905.78;5089445;28;20283;-28
2022/10/12 09:42:09;;;;;;;9.32;2.53;;;;;;;20.23;50.98;100893.19;5089336;28;20539;-28
2022/10/12 09:44:48;;;;;;;4.13;2.20;;;;;;;20.32;52.62;100888.88;5088675;28;20519;-29
2022/10/12 09:47:32;;;;;;;3.75;2.10;;;;;;;20.77;50.31;100906.44;5089496;28;20029;-30
2022/10/12 09:50:06;;;;;;;3.95;1.63;;;;;;;21.25;49.76;100904.38;5089399;28;20040;-28
2022/10/12 09:52:34;;;;;;;6.45;2.38;;;;;;;21.66;48.25;100898.19;5089039;28;20414;-28
2022/10/12 09:55:03;;;;;;;5.22;2.17;;;;;;;21.39;49.07;100895.69;5087510;28;20047;-27
2022/10/12 09:57:36;;;;;;;6.22;2.97;;;;;;;21.58;49.01;100877.81;5089209;28;20028;-28
2022/10/12 10:00:23;;;;;;;5.40;2.40;;;;;;;21.64;47.79;100893.00;5089089;28;20040;-28
2022/10/12 10:02:50;;;;;;;4.78;2.35;;;;;;;21.42;48.40;100896.00;5070213;28;20445;-28
2022/10/12 10:05:34;;;;;;;5.93;2.60;;;;;;;21.16;49.05;100888.91;5088297;28;20044;-30
2022/10/12 10:08:20;;;;;;;5.03;2.47;;;;;;;21.22;50.35;100888.63;5089029;28;20054;-28
2022/10/12 10:10:48;;;;;;;6.20;2.40;;;;;;;21.05;51.53;100888.88;5088512;28;20017;-30
2022/10/12 10:13:15;;;;;;;5.80;2.33;;;;;;;20.95;50.58;100888.06;5088640;28;20054;-29
2022/10/12 10:15:42;;;;;;;5.90;2.55;;;;;;;20.87;49.36;100865.78;5088896;28;20032;-28
2022/10/12 10:18:22;;;;;;;7.70;2.45;;;;;;;21.20;49.70;100879.94;5088303;28;20024;-30
2022/10/12 10:20:54;;;;;;;6.50;2.28;;;;;;;21.24;50.42;100869.38;5088554;28;20036;-28
2022/10/12 10:23:26;;;;;;;9.13;3.03;;;;;;;21.10;51.35;100846.56;5088694;28;20020;-29
2022/10/12 10:26:15;;;;;;;8.70;3.33;;;;;;;21.26;50.07;100859.88;5088675;28;20093;-28
2022/10/12 10:28:43;;;;;;;7.05;2.50;;;;;;;21.21;49.94;100854.47;5080432;28;20044;-28
2022/10/12 10:31:11;;;;;;;5.78;2.50;;;;;;;21.25;49.96;100860.97;5088692;28;20032;-28
2022/10/12 10:33:37;;;;;;;6.03;3.38;;;;;;;20.79;50.98;100846.53;5088490;28;20128;-28
2022/10/12 10:36:19;;;;;;;8.55;4.55;;;;;;;21.04;50.30;100853.88;5088423;28;20069;-29
2022/10/12 10:38:55;;;;;;;7.85;3.08;;;;;;;21.53;50.39;100845.25;5087718;28;20055;-29
2022/10/12 10:41:26;;;;;;;7.20;2.58;;;;;;;21.40;48.49;100853.91;5086784;28;20450;-28
2022/10/12 10:43:52;;;;;;;8.13;3.67;;;;;;;21.47;49.55;100835.47;5088200;28;20028;-29
2022/10/12 10:46:30;;;;;;;7.97;2.72;;;;;;;22.08;48.55;100846.19;5088004;28;20081;-28
2022/10/12 10:49:05;;;;;;;4.22;2.30;;;;;;;21.73;48.92;100844.41;5087793;28;20032;-29
2022/10/12 10:51:48;;;;;;;4.65;2.25;;;;;;;21.97;48.41;100844.63;5086529;28;20039;-27
2022/10/12 10:54:37;;;;;;;5.93;2.50;;;;;;;22.32;47.49;100844.81;5087982;28;20032;-28
2022/10/12 10:57:20;;;;;;;7.55;2.25;;;;;;;22.20;48.42;100823.34;5087694;28;20028;-28
2022/10/12 10:59:52;;;;;;;5.20;2.20;;;;;;;21.32;49.13;100827.34;5087778;28;20032;-29
2022/10/12 11:02:41;;;;;;;6.93;3.00;;;;;;;20.93;50.45;100814.31;5086997;28;20028;-28
2022/10/12 11:05:17;;;;;;;6.78;3.13;;;;;;;21.01;50.66;100821.91;5087744;28;20036;-28
2022/10/12 11:07:59;;;;;;;7.07;3.20;;;;;;;21.27;49.49;100809.97;5069285;28;20509;-27
2022/10/12 11:10:36;;;;;;;5.82;3.55;;;;;;;21.90;47.48;100816.94;5087729;28;20492;-33
2022/10/12 11:13:01;;;;;;;7.82;3.42;;;;;;;21.88;47.28;100794.66;5088125;28;20028;-29
2022/10/12 11:15:38;;;;;;;9.05;3.80;;;;;;;21.94;46.99;100814.47;5087534;28;20042;-28
2022/10/12 11:18:15;;;;;;;6.70;3.13;;;;;;;22.08;46.21;100813.59;5087372;28;20404;-29
2022/10/12 11:20:58;;;;;;;7.28;3.08;;;;;;;22.53;46.16;100818.34;5087523;28;20028;-29
2022/10/12 11:23:47;;;;;;;5.13;3.20;;;;;;;23.45;43.69;100806.78;5069048;28;20385;-29
2022/10/12 11:26:54;;;;;;;5.88;2.90;;;;;;;23.62;42.73;100806.31;5087552;28;20036;-29
2022/10/12 11:29:20;;;;;;;7.82;3.00;;;;;;;23.89;42.06;100794.09;5079449;28;20040;-30
2022/10/12 11:32:10;;;;;;;4.97;2.72;;;;;;;24.49;40.50;100809.94;5087225;28;20027;-28